sensor_id;sensor_type;location;lat;lon;timestamp;temperature;humidity
83142;DHT22;75194;51.180;5.972;2024-03-08T00:00:23;4.90;60.80
83142;DHT22;75194;51.180;5.972;2024-03-08T00:02:49;4.90;60.80
83142;DHT22;75194;51.180;5.972;2024-03-08T00:05:16;4.90;60.60
83142;DHT22;75194;51.180;5.972;2024-03-08T00:07:43;4.90;60.80
83142;DHT22;75194;51.180;5.972;2024-03-08T00:10:11;4.80;60.70
83142;DHT22;75194;51.180;5.972;2024-03-08T00:12:40;4.80;60.90
83142;DHT22;75194;51.180;5.972;2024-03-08T00:15:10;4.80;60.70
83142;DHT22;75194;51.180;5.972;2024-03-08T00:17:39;4.80;61.10
83142;DHT22;75194;51.180;5.972;2024-03-08T00:20:06;4.80;61.20
83142;DHT22;75194;51.180;5.972;2024-03-08T00:22:34;4.70;60.90
83142;DHT22;75194;51.180;5.972;2024-03-08T00:25:00;4.80;61.20
83142;DHT22;75194;51.180;5.972;2024-03-08T00:27:25;4.70;61.30
83142;DHT22;75194;51.180;5.972;2024-03-08T00:29:51;4.80;61.00
83142;DHT22;75194;51.180;5.972;2024-03-08T00:32:18;4.70;60.90
83142;DHT22;75194;51.180;5.972;2024-03-08T00:34:44;4.70;61.40
83142;DHT22;75194;51.180;5.972;2024-03-08T00:37:10;4.60;61.30
83142;DHT22;75194;51.180;5.972;2024-03-08T00:39:36;4.50;61.80
83142;DHT22;75194;51.180;5.972;2024-03-08T00:42:01;4.50;61.70
83142;DHT22;75194;51.180;5.972;2024-03-08T00:44:27;4.50;61.60
83142;DHT22;75194;51.180;5.972;2024-03-08T00:46:53;4.50;61.80
83142;DHT22;75194;51.180;5.972;2024-03-08T00:49:18;4.50;61.50
83142;DHT22;75194;51.180;5.972;2024-03-08T00:51:44;4.40;61.80
83142;DHT22;75194;51.180;5.972;2024-03-08T00:54:09;4.40;61.60
83142;DHT22;75194;51.180;5.972;2024-03-08T00:56:41;4.50;61.60
83142;DHT22;75194;51.180;5.972;2024-03-08T00:59:07;4.50;61.50
83142;DHT22;75194;51.180;5.972;2024-03-08T01:01:36;4.40;61.70
83142;DHT22;75194;51.180;5.972;2024-03-08T01:04:05;4.30;62.30
83142;DHT22;75194;51.180;5.972;2024-03-08T01:06:31;4.30;61.80
83142;DHT22;75194;51.180;5.972;2024-03-08T01:08:57;4.10;62.30
83142;DHT22;75194;51.180;5.972;2024-03-08T01:11:22;4.20;62.10
83142;DHT22;75194;51.180;5.972;2024-03-08T01:13:50;4.10;62.10
83142;DHT22;75194;51.180;5.972;2024-03-08T01:16:16;4.20;62.20
83142;DHT22;75194;51.180;5.972;2024-03-08T01:18:43;4.20;61.90
83142;DHT22;75194;51.180;5.972;2024-03-08T01:21:14;4.20;61.50
83142;DHT22;75194;51.180;5.972;2024-03-08T01:23:40;4.10;62.20
83142;DHT22;75194;51.180;5.972;2024-03-08T01:26:06;4.10;62.10
83142;DHT22;75194;51.180;5.972;2024-03-08T01:28:31;4.00;62.40
83142;DHT22;75194;51.180;5.972;2024-03-08T01:30:59;4.00;62.10
83142;DHT22;75194;51.180;5.972;2024-03-08T01:33:26;4.00;62.10
83142;DHT22;75194;51.180;5.972;2024-03-08T01:35:58;3.90;62.40
83142;DHT22;75194;51.180;5.972;2024-03-08T01:38:24;3.90;62.50
83142;DHT22;75194;51.180;5.972;2024-03-08T01:40:50;4.00;62.10
83142;DHT22;75194;51.180;5.972;2024-03-08T01:43:27;4.00;62.20
83142;DHT22;75194;51.180;5.972;2024-03-08T01:45:57;4.00;62.00
83142;DHT22;75194;51.180;5.972;2024-03-08T01:48:25;4.00;62.00
83142;DHT22;75194;51.180;5.972;2024-03-08T01:50:52;3.90;62.40
83142;DHT22;75194;51.180;5.972;2024-03-08T01:53:18;3.90;62.40
83142;DHT22;75194;51.180;5.972;2024-03-08T01:55:46;4.00;62.30
83142;DHT22;75194;51.180;5.972;2024-03-08T01:58:13;3.80;62.30
83142;DHT22;75194;51.180;5.972;2024-03-08T02:00:44;3.80;62.70
83142;DHT22;75194;51.180;5.972;2024-03-08T02:03:12;3.80;62.50
83142;DHT22;75194;51.180;5.972;2024-03-08T02:05:57;3.80;62.30
83142;DHT22;75194;51.180;5.972;2024-03-08T02:08:24;3.80;62.40
83142;DHT22;75194;51.180;5.972;2024-03-08T02:11:03;3.80;62.60
83142;DHT22;75194;51.180;5.972;2024-03-08T02:13:36;3.80;62.30
83142;DHT22;75194;51.180;5.972;2024-03-08T02:16:02;3.80;62.30
83142;DHT22;75194;51.180;5.972;2024-03-08T02:18:30;3.80;62.30
83142;DHT22;75194;51.180;5.972;2024-03-08T02:21:04;3.60;62.70
83142;DHT22;75194;51.180;5.972;2024-03-08T02:23:39;3.70;62.50
83142;DHT22;75194;51.180;5.972;2024-03-08T02:26:06;3.70;62.50
83142;DHT22;75194;51.180;5.972;2024-03-08T02:28:33;3.80;62.50
83142;DHT22;75194;51.180;5.972;2024-03-08T02:30:59;3.60;63.00
83142;DHT22;75194;51.180;5.972;2024-03-08T02:33:26;3.80;62.40
83142;DHT22;75194;51.180;5.972;2024-03-08T02:35:52;3.60;62.80
83142;DHT22;75194;51.180;5.972;2024-03-08T02:38:22;3.70;62.60
83142;DHT22;75194;51.180;5.972;2024-03-08T02:40:51;3.60;63.00
83142;DHT22;75194;51.180;5.972;2024-03-08T02:43:18;3.60;63.10
83142;DHT22;75194;51.180;5.972;2024-03-08T02:46:00;3.60;63.10
83142;DHT22;75194;51.180;5.972;2024-03-08T02:48:26;3.50;63.30
83142;DHT22;75194;51.180;5.972;2024-03-08T02:50:51;3.60;63.50
83142;DHT22;75194;51.180;5.972;2024-03-08T02:53:17;3.60;63.30
83142;DHT22;75194;51.180;5.972;2024-03-08T02:55:44;3.50;63.30
83142;DHT22;75194;51.180;5.972;2024-03-08T02:58:10;3.50;63.70
83142;DHT22;75194;51.180;5.972;2024-03-08T03:00:40;3.50;63.60
83142;DHT22;75194;51.180;5.972;2024-03-08T03:03:06;3.40;63.70
83142;DHT22;75194;51.180;5.972;2024-03-08T03:05:32;3.40;63.60
83142;DHT22;75194;51.180;5.972;2024-03-08T03:07:59;3.40;63.90
83142;DHT22;75194;51.180;5.972;2024-03-08T03:10:25;3.30;64.30
83142;DHT22;75194;51.180;5.972;2024-03-08T03:12:51;3.30;64.40
83142;DHT22;75194;51.180;5.972;2024-03-08T03:15:18;3.20;64.70
83142;DHT22;75194;51.180;5.972;2024-03-08T03:17:50;3.20;64.40
83142;DHT22;75194;51.180;5.972;2024-03-08T03:20:17;3.30;64.20
83142;DHT22;75194;51.180;5.972;2024-03-08T03:22:56;3.30;64.20
83142;DHT22;75194;51.180;5.972;2024-03-08T03:25:22;3.20;64.30
83142;DHT22;75194;51.180;5.972;2024-03-08T03:27:54;3.20;64.40
83142;DHT22;75194;51.180;5.972;2024-03-08T03:30:26;3.20;64.70
83142;DHT22;75194;51.180;5.972;2024-03-08T03:32:55;3.20;65.00
83142;DHT22;75194;51.180;5.972;2024-03-08T03:35:24;3.30;64.30
83142;DHT22;75194;51.180;5.972;2024-03-08T03:37:53;3.10;64.70
83142;DHT22;75194;51.180;5.972;2024-03-08T03:40:47;3.10;65.00
83142;DHT22;75194;51.180;5.972;2024-03-08T03:43:14;3.10;65.10
83142;DHT22;75194;51.180;5.972;2024-03-08T03:45:39;3.10;64.80
83142;DHT22;75194;51.180;5.972;2024-03-08T03:48:07;3.10;64.90
83142;DHT22;75194;51.180;5.972;2024-03-08T03:50:35;3.10;64.90
83142;DHT22;75194;51.180;5.972;2024-03-08T03:53:02;3.10;64.90
83142;DHT22;75194;51.180;5.972;2024-03-08T03:55:28;3.10;64.90
83142;DHT22;75194;51.180;5.972;2024-03-08T03:57:54;3.00;65.20
83142;DHT22;75194;51.180;5.972;2024-03-08T04:00:20;3.10;65.10
83142;DHT22;75194;51.180;5.972;2024-03-08T04:02:48;3.00;65.10
83142;DHT22;75194;51.180;5.972;2024-03-08T04:05:30;3.00;65.20
83142;DHT22;75194;51.180;5.972;2024-03-08T04:07:57;3.00;65.10
83142;DHT22;75194;51.180;5.972;2024-03-08T04:10:22;3.00;64.90
83142;DHT22;75194;51.180;5.972;2024-03-08T04:12:48;3.00;64.90
83142;DHT22;75194;51.180;5.972;2024-03-08T04:15:14;3.00;65.50
83142;DHT22;75194;51.180;5.972;2024-03-08T04:17:43;2.90;65.30
83142;DHT22;75194;51.180;5.972;2024-03-08T04:20:35;3.00;65.20
83142;DHT22;75194;51.180;5.972;2024-03-08T04:23:02;2.90;65.40
83142;DHT22;75194;51.180;5.972;2024-03-08T04:25:27;2.90;65.50
83142;DHT22;75194;51.180;5.972;2024-03-08T04:27:53;2.90;65.40
83142;DHT22;75194;51.180;5.972;2024-03-08T04:30:18;3.00;65.10
83142;DHT22;75194;51.180;5.972;2024-03-08T04:32:55;3.00;65.10
83142;DHT22;75194;51.180;5.972;2024-03-08T04:35:21;2.90;65.40
83142;DHT22;75194;51.180;5.972;2024-03-08T04:37:53;2.90;65.20
83142;DHT22;75194;51.180;5.972;2024-03-08T04:40:19;2.90;65.50
83142;DHT22;75194;51.180;5.972;2024-03-08T04:42:47;2.90;65.50
83142;DHT22;75194;51.180;5.972;2024-03-08T04:45:17;2.90;65.70
83142;DHT22;75194;51.180;5.972;2024-03-08T04:47:43;2.90;65.60
83142;DHT22;75194;51.180;5.972;2024-03-08T04:50:09;2.80;65.70
83142;DHT22;75194;51.180;5.972;2024-03-08T04:52:47;2.80;66.00
83142;DHT22;75194;51.180;5.972;2024-03-08T04:55:13;2.70;66.20
83142;DHT22;75194;51.180;5.972;2024-03-08T04:57:38;2.70;66.10
83142;DHT22;75194;51.180;5.972;2024-03-08T05:00:10;2.70;66.20
83142;DHT22;75194;51.180;5.972;2024-03-08T05:02:39;2.70;66.20
83142;DHT22;75194;51.180;5.972;2024-03-08T05:05:05;2.70;66.50
83142;DHT22;75194;51.180;5.972;2024-03-08T05:07:43;2.80;66.10
83142;DHT22;75194;51.180;5.972;2024-03-08T05:10:11;2.70;66.10
83142;DHT22;75194;51.180;5.972;2024-03-08T05:12:39;2.80;65.90
83142;DHT22;75194;51.180;5.972;2024-03-08T05:15:44;2.70;66.10
83142;DHT22;75194;51.180;5.972;2024-03-08T05:18:13;2.70;66.30
83142;DHT22;75194;51.180;5.972;2024-03-08T05:20:40;2.60;66.50
83142;DHT22;75194;51.180;5.972;2024-03-08T05:23:07;2.60;66.40
83142;DHT22;75194;51.180;5.972;2024-03-08T05:25:33;2.60;66.30
83142;DHT22;75194;51.180;5.972;2024-03-08T05:27:59;2.60;66.70
83142;DHT22;75194;51.180;5.972;2024-03-08T05:30:25;2.50;67.00
83142;DHT22;75194;51.180;5.972;2024-03-08T05:33:03;2.50;67.00
83142;DHT22;75194;51.180;5.972;2024-03-08T05:38:37;2.40;66.80
83142;DHT22;75194;51.180;5.972;2024-03-08T05:41:03;2.40;67.20
83142;DHT22;75194;51.180;5.972;2024-03-08T05:44:01;2.40;67.30
83142;DHT22;75194;51.180;5.972;2024-03-08T05:46:27;2.50;66.90
83142;DHT22;75194;51.180;5.972;2024-03-08T05:49:08;2.50;66.80
83142;DHT22;75194;51.180;5.972;2024-03-08T05:54:41;2.40;67.10
83142;DHT22;75194;51.180;5.972;2024-03-08T05:57:08;2.50;66.90
83142;DHT22;75194;51.180;5.972;2024-03-08T05:59:33;2.50;66.70
83142;DHT22;75194;51.180;5.972;2024-03-08T06:01:59;2.50;66.70
83142;DHT22;75194;51.180;5.972;2024-03-08T06:07:51;2.50;66.90
83142;DHT22;75194;51.180;5.972;2024-03-08T06:10:19;2.40;67.10
83142;DHT22;75194;51.180;5.972;2024-03-08T06:12:45;2.40;67.50
83142;DHT22;75194;51.180;5.972;2024-03-08T06:15:17;2.40;66.90
83142;DHT22;75194;51.180;5.972;2024-03-08T06:17:59;2.50;67.00
83142;DHT22;75194;51.180;5.972;2024-03-08T06:20:36;2.40;67.10
83142;DHT22;75194;51.180;5.972;2024-03-08T06:23:02;2.40;67.30
83142;DHT22;75194;51.180;5.972;2024-03-08T06:25:27;2.30;67.30
83142;DHT22;75194;51.180;5.972;2024-03-08T06:27:56;2.30;67.20
83142;DHT22;75194;51.180;5.972;2024-03-08T06:30:22;2.40;67.00
83142;DHT22;75194;51.180;5.972;2024-03-08T06:35:44;2.40;67.20
83142;DHT22;75194;51.180;5.972;2024-03-08T06:47:10;2.50;67.30
83142;DHT22;75194;51.180;5.972;2024-03-08T06:56:46;2.70;67.10
83142;DHT22;75194;51.180;5.972;2024-03-08T06:59:34;2.80;66.30
83142;DHT22;75194;51.180;5.972;2024-03-08T07:02:02;2.90;66.20
83142;DHT22;75194;51.180;5.972;2024-03-08T07:04:37;2.90;66.10
83142;DHT22;75194;51.180;5.972;2024-03-08T07:07:09;3.00;65.70
83142;DHT22;75194;51.180;5.972;2024-03-08T07:09:36;3.00;65.60
83142;DHT22;75194;51.180;5.972;2024-03-08T07:12:05;3.10;65.60
83142;DHT22;75194;51.180;5.972;2024-03-08T07:14:33;3.20;65.50
83142;DHT22;75194;51.180;5.972;2024-03-08T07:17:15;3.40;65.40
83142;DHT22;75194;51.180;5.972;2024-03-08T07:19:56;3.40;64.40
83142;DHT22;75194;51.180;5.972;2024-03-08T07:22:24;3.60;64.80
83142;DHT22;75194;51.180;5.972;2024-03-08T07:24:50;3.70;63.90
83142;DHT22;75194;51.180;5.972;2024-03-08T07:27:16;3.90;63.20
83142;DHT22;75194;51.180;5.972;2024-03-08T07:29:43;4.00;63.20
83142;DHT22;75194;51.180;5.972;2024-03-08T07:32:08;4.10;63.00
83142;DHT22;75194;51.180;5.972;2024-03-08T07:34:47;4.20;63.10
83142;DHT22;75194;51.180;5.972;2024-03-08T07:37:17;4.30;62.40
83142;DHT22;75194;51.180;5.972;2024-03-08T07:39:43;4.30;62.20
83142;DHT22;75194;51.180;5.972;2024-03-08T07:42:09;4.20;62.50
83142;DHT22;75194;51.180;5.972;2024-03-08T07:44:36;4.60;62.10
83142;DHT22;75194;51.180;5.972;2024-03-08T07:47:02;4.70;61.20
83142;DHT22;75194;51.180;5.972;2024-03-08T07:49:29;4.70;61.40
83142;DHT22;75194;51.180;5.972;2024-03-08T07:52:34;4.80;61.20
83142;DHT22;75194;51.180;5.972;2024-03-08T07:55:08;4.90;60.90
83142;DHT22;75194;51.180;5.972;2024-03-08T07:57:38;4.90;60.80
83142;DHT22;75194;51.180;5.972;2024-03-08T08:03:15;5.10;60.40
83142;DHT22;75194;51.180;5.972;2024-03-08T08:05:54;5.10;60.60
83142;DHT22;75194;51.180;5.972;2024-03-08T08:17:13;5.60;59.20
83142;DHT22;75194;51.180;5.972;2024-03-08T08:19:41;5.70;59.10
83142;DHT22;75194;51.180;5.972;2024-03-08T08:22:15;5.70;58.90
83142;DHT22;75194;51.180;5.972;2024-03-08T08:28:57;5.80;58.80
83142;DHT22;75194;51.180;5.972;2024-03-08T08:35:16;6.20;58.00
83142;DHT22;75194;51.180;5.972;2024-03-08T08:41:25;6.50;57.60
83142;DHT22;75194;51.180;5.972;2024-03-08T08:51:16;6.60;57.20
83142;DHT22;75194;51.180;5.972;2024-03-08T08:54:21;6.70;56.80
83142;DHT22;75194;51.180;5.972;2024-03-08T08:56:48;6.70;56.60
83142;DHT22;75194;51.180;5.972;2024-03-08T09:02:22;7.20;55.60
83142;DHT22;75194;51.180;5.972;2024-03-08T09:04:48;7.10;55.50
83142;DHT22;75194;51.180;5.972;2024-03-08T09:07:14;7.10;55.70
83142;DHT22;75194;51.180;5.972;2024-03-08T09:09:41;7.00;56.30
83142;DHT22;75194;51.180;5.972;2024-03-08T09:12:07;7.20;55.50
83142;DHT22;75194;51.180;5.972;2024-03-08T09:14:33;7.40;54.50
83142;DHT22;75194;51.180;5.972;2024-03-08T09:16:58;7.30;54.80
83142;DHT22;75194;51.180;5.972;2024-03-08T09:19:24;7.30;55.40
83142;DHT22;75194;51.180;5.972;2024-03-08T09:21:51;7.60;54.80
83142;DHT22;75194;51.180;5.972;2024-03-08T09:24:17;7.90;53.90
83142;DHT22;75194;51.180;5.972;2024-03-08T09:26:42;8.10;53.50
83142;DHT22;75194;51.180;5.972;2024-03-08T09:29:08;7.90;53.30
83142;DHT22;75194;51.180;5.972;2024-03-08T09:31:36;7.80;53.50
83142;DHT22;75194;51.180;5.972;2024-03-08T09:34:03;8.00;53.50
83142;DHT22;75194;51.180;5.972;2024-03-08T09:36:29;7.80;53.40
83142;DHT22;75194;51.180;5.972;2024-03-08T09:38:57;7.80;53.50
83142;DHT22;75194;51.180;5.972;2024-03-08T09:41:31;8.10;53.10
83142;DHT22;75194;51.180;5.972;2024-03-08T09:43:57;8.20;53.10
83142;DHT22;75194;51.180;5.972;2024-03-08T09:46:31;8.30;53.50
83142;DHT22;75194;51.180;5.972;2024-03-08T09:48:57;8.20;52.00
83142;DHT22;75194;51.180;5.972;2024-03-08T09:51:37;8.20;52.20
83142;DHT22;75194;51.180;5.972;2024-03-08T09:54:05;8.20;52.30
83142;DHT22;75194;51.180;5.972;2024-03-08T09:56:35;8.30;52.50
83142;DHT22;75194;51.180;5.972;2024-03-08T09:59:01;8.40;51.40
83142;DHT22;75194;51.180;5.972;2024-03-08T10:01:40;8.50;51.70
83142;DHT22;75194;51.180;5.972;2024-03-08T10:04:14;8.80;51.90
83142;DHT22;75194;51.180;5.972;2024-03-08T10:06:42;8.70;50.50
83142;DHT22;75194;51.180;5.972;2024-03-08T10:09:09;8.90;51.10
83142;DHT22;75194;51.180;5.972;2024-03-08T10:11:47;9.00;49.80
83142;DHT22;75194;51.180;5.972;2024-03-08T10:14:16;9.00;50.80
83142;DHT22;75194;51.180;5.972;2024-03-08T10:16:42;9.20;50.20
83142;DHT22;75194;51.180;5.972;2024-03-08T10:19:07;9.10;49.90
83142;DHT22;75194;51.180;5.972;2024-03-08T10:21:35;9.10;50.60
83142;DHT22;75194;51.180;5.972;2024-03-08T10:24:02;9.10;50.30
83142;DHT22;75194;51.180;5.972;2024-03-08T10:26:28;9.30;49.90
83142;DHT22;75194;51.180;5.972;2024-03-08T10:28:54;9.20;49.60
83142;DHT22;75194;51.180;5.972;2024-03-08T10:31:20;9.30;49.70
83142;DHT22;75194;51.180;5.972;2024-03-08T10:33:46;9.20;49.80
83142;DHT22;75194;51.180;5.972;2024-03-08T10:36:13;9.30;49.80
83142;DHT22;75194;51.180;5.972;2024-03-08T10:38:40;9.30;49.60
83142;DHT22;75194;51.180;5.972;2024-03-08T10:41:08;9.20;49.90
83142;DHT22;75194;51.180;5.972;2024-03-08T10:46:49;9.50;49.40
83142;DHT22;75194;51.180;5.972;2024-03-08T10:49:22;9.40;49.70
83142;DHT22;75194;51.180;5.972;2024-03-08T10:51:50;9.60;49.10
83142;DHT22;75194;51.180;5.972;2024-03-08T10:54:19;9.60;50.50
83142;DHT22;75194;51.180;5.972;2024-03-08T10:56:48;9.70;48.90
83142;DHT22;75194;51.180;5.972;2024-03-08T10:59:14;9.70;48.50
83142;DHT22;75194;51.180;5.972;2024-03-08T11:01:43;9.80;48.80
83142;DHT22;75194;51.180;5.972;2024-03-08T11:04:09;10.10;48.80
83142;DHT22;75194;51.180;5.972;2024-03-08T11:14:47;10.30;47.30
83142;DHT22;75194;51.180;5.972;2024-03-08T11:17:44;10.40;47.40
83142;DHT22;75194;51.180;5.972;2024-03-08T11:20:13;10.60;47.50
83142;DHT22;75194;51.180;5.972;2024-03-08T11:25:37;10.70;47.50
83142;DHT22;75194;51.180;5.972;2024-03-08T11:28:24;10.90;46.90
83142;DHT22;75194;51.180;5.972;2024-03-08T11:33:26;10.50;46.60
83142;DHT22;75194;51.180;5.972;2024-03-08T11:35:57;10.40;46.80
83142;DHT22;75194;51.180;5.972;2024-03-08T11:38:28;10.60;46.50
83142;DHT22;75194;51.180;5.972;2024-03-08T11:40:57;11.00;47.40
83142;DHT22;75194;51.180;5.972;2024-03-08T11:43:22;11.30;45.20
83142;DHT22;75194;51.180;5.972;2024-03-08T11:45:48;11.00;45.30
83142;DHT22;75194;51.180;5.972;2024-03-08T11:48:13;11.20;46.00
83142;DHT22;75194;51.180;5.972;2024-03-08T11:50:39;11.30;45.00
83142;DHT22;75194;51.180;5.972;2024-03-08T11:53:05;11.20;45.20
83142;DHT22;75194;51.180;5.972;2024-03-08T11:55:34;11.10;45.70
83142;DHT22;75194;51.180;5.972;2024-03-08T11:58:04;11.10;45.70
83142;DHT22;75194;51.180;5.972;2024-03-08T12:00:31;11.30;46.30
83142;DHT22;75194;51.180;5.972;2024-03-08T12:03:07;11.40;45.60
83142;DHT22;75194;51.180;5.972;2024-03-08T12:05:35;11.30;45.60
83142;DHT22;75194;51.180;5.972;2024-03-08T12:08:04;11.60;45.70
83142;DHT22;75194;51.180;5.972;2024-03-08T12:10:34;12.00;45.30
83142;DHT22;75194;51.180;5.972;2024-03-08T12:13:03;12.30;44.90
83142;DHT22;75194;51.180;5.972;2024-03-08T12:15:29;12.10;42.90
83142;DHT22;75194;51.180;5.972;2024-03-08T12:17:59;12.20;43.40
83142;DHT22;75194;51.180;5.972;2024-03-08T12:20:27;12.10;43.20
83142;DHT22;75194;51.180;5.972;2024-03-08T12:22:56;12.40;43.30
83142;DHT22;75194;51.180;5.972;2024-03-08T12:25:25;12.50;43.10
83142;DHT22;75194;51.180;5.972;2024-03-08T12:27:51;12.60;43.90
83142;DHT22;75194;51.180;5.972;2024-03-08T12:30:26;12.60;43.60
83142;DHT22;75194;51.180;5.972;2024-03-08T12:32:56;11.90;43.50
83142;DHT22;75194;51.180;5.972;2024-03-08T12:35:23;12.30;44.30
83142;DHT22;75194;51.180;5.972;2024-03-08T12:37:52;12.30;43.20
83142;DHT22;75194;51.180;5.972;2024-03-08T12:40:25;11.90;43.90
83142;DHT22;75194;51.180;5.972;2024-03-08T12:42:52;12.00;43.80
83142;DHT22;75194;51.180;5.972;2024-03-08T12:45:17;12.00;44.40
83142;DHT22;75194;51.180;5.972;2024-03-08T12:47:45;12.10;44.00
83142;DHT22;75194;51.180;5.972;2024-03-08T12:50:12;12.30;44.40
83142;DHT22;75194;51.180;5.972;2024-03-08T12:52:37;12.20;43.70
83142;DHT22;75194;51.180;5.972;2024-03-08T12:55:03;12.10;43.60
83142;DHT22;75194;51.180;5.972;2024-03-08T12:57:29;12.30;43.60
83142;DHT22;75194;51.180;5.972;2024-03-08T12:59:55;12.10;42.80
83142;DHT22;75194;51.180;5.972;2024-03-08T13:02:20;12.00;43.80
83142;DHT22;75194;51.180;5.972;2024-03-08T13:04:46;12.00;43.80
83142;DHT22;75194;51.180;5.972;2024-03-08T13:07:21;12.00;43.90
83142;DHT22;75194;51.180;5.972;2024-03-08T13:09:47;12.20;43.70
83142;DHT22;75194;51.180;5.972;2024-03-08T13:12:12;12.30;43.70
83142;DHT22;75194;51.180;5.972;2024-03-08T13:14:40;12.10;43.30
83142;DHT22;75194;51.180;5.972;2024-03-08T13:17:06;11.80;44.10
83142;DHT22;75194;51.180;5.972;2024-03-08T13:19:36;12.00;43.80
83142;DHT22;75194;51.180;5.972;2024-03-08T13:22:03;12.10;43.90
83142;DHT22;75194;51.180;5.972;2024-03-08T13:24:32;12.10;43.50
83142;DHT22;75194;51.180;5.972;2024-03-08T13:26:59;12.30;44.30
83142;DHT22;75194;51.180;5.972;2024-03-08T13:29:25;12.50;43.80
83142;DHT22;75194;51.180;5.972;2024-03-08T13:31:51;12.40;43.20
83142;DHT22;75194;51.180;5.972;2024-03-08T13:34:18;12.20;42.90
83142;DHT22;75194;51.180;5.972;2024-03-08T13:36:44;12.10;43.70
83142;DHT22;75194;51.180;5.972;2024-03-08T13:39:11;11.90;43.20
83142;DHT22;75194;51.180;5.972;2024-03-08T13:41:41;11.90;44.00
83142;DHT22;75194;51.180;5.972;2024-03-08T13:44:07;12.00;43.60
83142;DHT22;75194;51.180;5.972;2024-03-08T13:46:33;11.90;43.40
83142;DHT22;75194;51.180;5.972;2024-03-08T13:49:03;11.80;44.00
83142;DHT22;75194;51.180;5.972;2024-03-08T13:51:33;12.10;44.10
83142;DHT22;75194;51.180;5.972;2024-03-08T13:53:59;12.20;43.90
83142;DHT22;75194;51.180;5.972;2024-03-08T13:56:26;12.50;43.60
83142;DHT22;75194;51.180;5.972;2024-03-08T13:58:52;12.10;43.50
83142;DHT22;75194;51.180;5.972;2024-03-08T14:01:21;12.00;43.80
83142;DHT22;75194;51.180;5.972;2024-03-08T14:03:47;11.90;43.60
83142;DHT22;75194;51.180;5.972;2024-03-08T14:06:12;11.90;43.90
83142;DHT22;75194;51.180;5.972;2024-03-08T14:08:38;12.00;43.80
83142;DHT22;75194;51.180;5.972;2024-03-08T14:11:04;12.00;43.60
83142;DHT22;75194;51.180;5.972;2024-03-08T14:13:43;11.90;43.40
83142;DHT22;75194;51.180;5.972;2024-03-08T14:16:12;11.70;43.30
83142;DHT22;75194;51.180;5.972;2024-03-08T14:18:38;12.00;44.10
83142;DHT22;75194;51.180;5.972;2024-03-08T14:21:04;12.00;44.00
83142;DHT22;75194;51.180;5.972;2024-03-08T14:23:31;12.10;44.00
83142;DHT22;75194;51.180;5.972;2024-03-08T14:25:58;11.90;44.30
83142;DHT22;75194;51.180;5.972;2024-03-08T14:28:25;11.90;43.70
83142;DHT22;75194;51.180;5.972;2024-03-08T14:30:53;12.00;44.00
83142;DHT22;75194;51.180;5.972;2024-03-08T14:33:19;12.10;43.40
83142;DHT22;75194;51.180;5.972;2024-03-08T14:35:44;12.00;43.20
83142;DHT22;75194;51.180;5.972;2024-03-08T14:38:12;11.80;43.80
83142;DHT22;75194;51.180;5.972;2024-03-08T14:40:40;11.80;44.00
83142;DHT22;75194;51.180;5.972;2024-03-08T14:43:06;11.90;43.70
83142;DHT22;75194;51.180;5.972;2024-03-08T14:45:31;11.80;43.40
83142;DHT22;75194;51.180;5.972;2024-03-08T14:47:57;11.80;43.50
83142;DHT22;75194;51.180;5.972;2024-03-08T14:50:24;11.90;43.60
83142;DHT22;75194;51.180;5.972;2024-03-08T14:52:51;11.90;43.70
83142;DHT22;75194;51.180;5.972;2024-03-08T14:55:18;11.90;43.60
83142;DHT22;75194;51.180;5.972;2024-03-08T14:57:48;11.90;43.60
83142;DHT22;75194;51.180;5.972;2024-03-08T15:00:17;11.90;43.70
83142;DHT22;75194;51.180;5.972;2024-03-08T15:02:54;11.90;43.60
83142;DHT22;75194;51.180;5.972;2024-03-08T15:05:20;11.80;43.30
83142;DHT22;75194;51.180;5.972;2024-03-08T15:07:52;11.80;44.30
83142;DHT22;75194;51.180;5.972;2024-03-08T15:10:23;11.80;43.20
83142;DHT22;75194;51.180;5.972;2024-03-08T15:12:51;11.70;44.10
83142;DHT22;75194;51.180;5.972;2024-03-08T15:15:21;11.60;43.20
83142;DHT22;75194;51.180;5.972;2024-03-08T15:17:48;11.50;43.10
83142;DHT22;75194;51.180;5.972;2024-03-08T15:20:14;11.60;43.40
83142;DHT22;75194;51.180;5.972;2024-03-08T15:22:50;11.50;43.20
83142;DHT22;75194;51.180;5.972;2024-03-08T15:25:17;11.50;43.50
83142;DHT22;75194;51.180;5.972;2024-03-08T15:27:49;11.60;43.10
83142;DHT22;75194;51.180;5.972;2024-03-08T15:30:15;11.50;43.30
83142;DHT22;75194;51.180;5.972;2024-03-08T15:32:46;11.50;43.40
83142;DHT22;75194;51.180;5.972;2024-03-08T15:35:13;11.60;44.00
83142;DHT22;75194;51.180;5.972;2024-03-08T15:37:40;11.60;43.80
83142;DHT22;75194;51.180;5.972;2024-03-08T15:40:14;11.50;44.20
83142;DHT22;75194;51.180;5.972;2024-03-08T15:45:20;11.60;43.60
83142;DHT22;75194;51.180;5.972;2024-03-08T15:47:46;11.60;43.80
83142;DHT22;75194;51.180;5.972;2024-03-08T15:50:12;11.60;43.20
83142;DHT22;75194;51.180;5.972;2024-03-08T15:52:39;11.60;43.60
83142;DHT22;75194;51.180;5.972;2024-03-08T15:55:06;11.50;43.80
83142;DHT22;75194;51.180;5.972;2024-03-08T15:57:32;11.50;43.20
83142;DHT22;75194;51.180;5.972;2024-03-08T16:00:06;11.40;43.50
83142;DHT22;75194;51.180;5.972;2024-03-08T16:02:41;11.50;43.30
83142;DHT22;75194;51.180;5.972;2024-03-08T16:05:07;11.50;43.40
83142;DHT22;75194;51.180;5.972;2024-03-08T16:07:38;11.40;44.00
83142;DHT22;75194;51.180;5.972;2024-03-08T16:10:04;11.40;43.60
83142;DHT22;75194;51.180;5.972;2024-03-08T16:12:35;11.30;43.60
83142;DHT22;75194;51.180;5.972;2024-03-08T16:15:02;11.30;43.70
83142;DHT22;75194;51.180;5.972;2024-03-08T16:17:43;11.30;44.10
83142;DHT22;75194;51.180;5.972;2024-03-08T16:20:09;11.20;43.50
83142;DHT22;75194;51.180;5.972;2024-03-08T16:23:00;11.10;43.40
83142;DHT22;75194;51.180;5.972;2024-03-08T16:25:26;11.20;43.90
83142;DHT22;75194;51.180;5.972;2024-03-08T16:27:51;11.10;44.00
83142;DHT22;75194;51.180;5.972;2024-03-08T16:30:26;11.10;44.20
83142;DHT22;75194;51.180;5.972;2024-03-08T16:32:52;11.10;44.40
83142;DHT22;75194;51.180;5.972;2024-03-08T16:35:18;11.00;44.20
83142;DHT22;75194;51.180;5.972;2024-03-08T16:40:30;11.00;44.70
83142;DHT22;75194;51.180;5.972;2024-03-08T16:43:14;11.00;45.10
83142;DHT22;75194;51.180;5.972;2024-03-08T16:45:41;10.90;44.40
83142;DHT22;75194;51.180;5.972;2024-03-08T16:48:08;10.80;44.70
83142;DHT22;75194;51.180;5.972;2024-03-08T16:50:37;10.80;45.00
83142;DHT22;75194;51.180;5.972;2024-03-08T16:53:03;10.80;45.20
83142;DHT22;75194;51.180;5.972;2024-03-08T16:55:29;10.70;44.70
83142;DHT22;75194;51.180;5.972;2024-03-08T16:57:56;10.70;45.00
83142;DHT22;75194;51.180;5.972;2024-03-08T17:00:28;10.60;45.20
83142;DHT22;75194;51.180;5.972;2024-03-08T17:02:55;10.60;44.80
83142;DHT22;75194;51.180;5.972;2024-03-08T17:05:23;10.60;45.50
83142;DHT22;75194;51.180;5.972;2024-03-08T17:07:54;10.50;45.30
83142;DHT22;75194;51.180;5.972;2024-03-08T17:10:20;10.50;45.60
83142;DHT22;75194;51.180;5.972;2024-03-08T17:12:49;10.40;45.60
83142;DHT22;75194;51.180;5.972;2024-03-08T17:15:16;10.40;45.90